createdAt,value
2023-04-15T00:00:57.756Z,97110.50
2023-04-15T00:03:25.158Z,97111.16
2023-04-15T00:06:18.889Z,97105.97
2023-04-15T00:09:08.580Z,97114.06
2023-04-15T00:12:07.260Z,97093.13
2023-04-15T00:14:49.916Z,97120.38
2023-04-15T00:17:38.429Z,97117.53
2023-04-15T00:20:30.738Z,97121.50
2023-04-15T00:23:10.715Z,97113.50
2023-04-15T00:25:37.605Z,97120.84
2023-04-15T00:28:04.642Z,97134.56
2023-04-15T00:30:31.779Z,97126.91
2023-04-15T00:32:58.720Z,97134.09
2023-04-15T00:35:25.953Z,97132.44
2023-04-15T00:37:52.877Z,97145.75
2023-04-15T00:40:21.287Z,97152.44
2023-04-15T00:42:48.457Z,97156.63
2023-04-15T00:45:15.962Z,97141.81
2023-04-15T00:47:44.811Z,97144.66
2023-04-15T00:50:12.950Z,97141.34
2023-04-15T00:52:40.983Z,97150.50
2023-04-15T00:55:09.063Z,97157.50
2023-04-15T00:57:36.765Z,97157.97
2023-04-15T01:00:05.841Z,97152.94
2023-04-15T01:02:33.819Z,97142.13
2023-04-15T01:05:00.864Z,97139.34
2023-04-15T01:07:57.948Z,97149.81
2023-04-15T01:10:48.154Z,97148.09
2023-04-15T01:13:40.683Z,97150.94
2023-04-15T01:16:30.578Z,97157.53
2023-04-15T01:19:17.386Z,97121.41
2023-04-15T01:22:07.069Z,97132.59
2023-04-15T01:24:36.114Z,97144.56
2023-04-15T01:27:03.646Z,97146.00
2023-04-15T01:29:32.034Z,97134.25
2023-04-15T01:31:59.280Z,97145.75
2023-04-15T01:34:26.232Z,97157.59
2023-04-15T01:36:53.098Z,97152.22
2023-04-15T01:39:20.061Z,97145.03
2023-04-15T01:41:46.957Z,97157.47
2023-04-15T01:44:13.916Z,97154.97
2023-04-15T01:46:40.875Z,97155.06
2023-04-15T01:49:09.212Z,97163.38
2023-04-15T01:51:36.151Z,97167.94
2023-04-15T01:54:03.103Z,97148.69
2023-04-15T01:56:30.088Z,97157.75
2023-04-15T01:58:57.199Z,97172.03
2023-04-15T02:01:24.190Z,97176.06
2023-04-15T02:03:51.156Z,97189.53
2023-04-15T02:06:18.573Z,97191.81
2023-04-15T02:08:45.515Z,97197.88
2023-04-15T02:11:12.399Z,97192.53
2023-04-15T02:13:39.343Z,97193.06
2023-04-15T02:16:16.866Z,97183.78
2023-04-15T02:18:45.666Z,97194.38
2023-04-15T02:21:12.844Z,97182.41
2023-04-15T02:23:39.751Z,97196.41
2023-04-15T02:26:06.899Z,97198.28
2023-04-15T02:28:33.816Z,97187.97
2023-04-15T02:31:01.931Z,97193.50
2023-04-15T02:33:28.868Z,97193.50
2023-04-15T02:35:55.862Z,97203.91
2023-04-15T02:38:22.821Z,97199.63
2023-04-15T02:40:50.581Z,97202.81
2023-04-15T02:43:17.865Z,97201.63
2023-04-15T02:45:46.434Z,97204.94
2023-04-15T02:48:13.542Z,97210.53
2023-04-15T02:50:41.176Z,97217.41
2023-04-15T02:53:08.188Z,97219.69
2023-04-15T02:55:35.212Z,97214.53
2023-04-15T02:58:02.218Z,97220.16
2023-04-15T03:00:29.160Z,97223.28
2023-04-15T03:03:02.653Z,97216.25
2023-04-15T03:05:29.775Z,97221.25
2023-04-15T03:07:56.703Z,97224.13
2023-04-15T03:10:23.653Z,97224.16
2023-04-15T03:12:50.618Z,97218.56
2023-04-15T03:15:17.657Z,97233.84
2023-04-15T03:17:44.658Z,97227.00
2023-04-15T03:20:11.704Z,97230.91
2023-04-15T03:22:38.629Z,97225.94
2023-04-15T03:25:05.948Z,97230.09
2023-04-15T03:27:32.884Z,97245.38
2023-04-15T03:29:59.779Z,97235.50
2023-04-15T03:32:27.488Z,97257.22
2023-04-15T03:34:54.412Z,97252.75
2023-04-15T03:37:21.306Z,97257.69
2023-04-15T03:39:48.199Z,97264.13
2023-04-15T03:42:15.115Z,97269.28
2023-04-15T03:44:42.494Z,97272.78
2023-04-15T03:47:09.407Z,97270.94
2023-04-15T03:49:37.154Z,97275.44
2023-04-15T03:52:04.124Z,97279.78
2023-04-15T03:54:31.241Z,97287.84
2023-04-15T03:56:58.145Z,97299.19
2023-04-15T03:59:25.106Z,97297.13
2023-04-15T04:01:52.257Z,97289.81
2023-04-15T04:04:19.330Z,97289.63
2023-04-15T04:06:46.391Z,97288.56
2023-04-15T04:09:13.262Z,97284.25
2023-04-15T04:11:40.166Z,97292.38
2023-04-15T04:14:07.492Z,97285.91
2023-04-15T04:16:34.481Z,97297.25
2023-04-15T04:19:02.180Z,97301.38
2023-04-15T04:21:29.615Z,97303.63
2023-04-15T04:23:56.992Z,97308.19
2023-04-15T04:26:23.928Z,97308.78
2023-04-15T04:28:50.953Z,97315.22
2023-04-15T04:31:17.914Z,97320.00
2023-04-15T04:33:44.801Z,97323.34
2023-04-15T04:36:11.838Z,97321.91
2023-04-15T04:38:38.753Z,97319.84
2023-04-15T04:41:06.159Z,97318.78
2023-04-15T04:43:33.029Z,97320.25
2023-04-15T04:45:59.987Z,97308.69
2023-04-15T04:48:27.363Z,97317.75
2023-04-15T04:50:54.469Z,97318.56
2023-04-15T04:53:21.386Z,97328.91
2023-04-15T04:55:48.306Z,97323.34
2023-04-15T04:58:15.225Z,97327.69
2023-04-15T05:00:42.314Z,97316.34
2023-04-15T05:03:09.498Z,97327.31
2023-04-15T05:05:39.599Z,97328.31
2023-04-15T05:08:06.705Z,97324.00
2023-04-15T05:10:33.740Z,97323.13
2023-04-15T05:13:00.670Z,97324.78
2023-04-15T05:15:27.560Z,97321.03
2023-04-15T05:17:54.720Z,97333.84
2023-04-15T05:20:22.027Z,97331.94
2023-04-15T05:22:48.964Z,97331.75
2023-04-15T05:25:16.612Z,97330.09
2023-04-15T05:27:43.551Z,97330.47
2023-04-15T05:30:12.785Z,97332.47
2023-04-15T05:32:41.358Z,97337.75
2023-04-15T05:35:08.783Z,97338.94
2023-04-15T05:37:36.454Z,97335.56
2023-04-15T05:40:04.652Z,97334.69
2023-04-15T05:42:31.648Z,97334.78
2023-04-15T05:44:58.590Z,97336.13
2023-04-15T05:47:25.510Z,97344.22
2023-04-15T05:49:52.452Z,97350.13
2023-04-15T05:52:19.350Z,97361.78
2023-04-15T05:54:46.824Z,97356.59
2023-04-15T05:57:13.710Z,97352.84
2023-04-15T05:59:42.362Z,97357.28
2023-04-15T06:02:10.373Z,97363.75
2023-04-15T06:04:37.478Z,97369.84
2023-04-15T06:07:04.415Z,97360.09
2023-04-15T06:09:31.384Z,97363.72
2023-04-15T06:11:59.267Z,97356.31
2023-04-15T06:14:26.282Z,97371.72
2023-04-15T06:16:53.187Z,97373.75
2023-04-15T06:19:20.662Z,97370.69
2023-04-15T06:21:47.651Z,97380.19
2023-04-15T06:24:14.628Z,97380.69
2023-04-15T06:26:41.783Z,97374.94
2023-04-15T06:29:08.631Z,97375.16
2023-04-15T06:31:35.524Z,97371.41
2023-04-15T06:34:02.554Z,97380.81
2023-04-15T06:36:29.489Z,97377.47
2023-04-15T06:38:57.299Z,97372.97
2023-04-15T06:41:24.515Z,97382.88
2023-04-15T06:43:51.727Z,97377.97
2023-04-15T06:46:18.760Z,97385.84
2023-04-15T06:48:45.800Z,97395.19
2023-04-15T06:51:12.912Z,97397.63
2023-04-15T06:53:42.172Z,97397.66
2023-04-15T06:56:09.921Z,97403.63
2023-04-15T06:58:36.882Z,97397.25
2023-04-15T07:01:04.720Z,97376.69
2023-04-15T07:03:32.938Z,97400.59
2023-04-15T07:06:00.120Z,97407.75
2023-04-15T07:08:27.030Z,97405.03
2023-04-15T07:10:54.417Z,97400.22
2023-04-15T07:13:21.348Z,97412.84
2023-04-15T07:15:48.204Z,97410.88
2023-04-15T07:18:15.094Z,97413.88
2023-04-15T07:20:42.011Z,97415.88
2023-04-15T07:23:09.004Z,97419.78
2023-04-15T07:25:35.888Z,97414.13
2023-04-15T07:28:02.886Z,97425.78
2023-04-15T07:30:29.816Z,97427.53
2023-04-15T07:32:58.982Z,97431.06
2023-04-15T07:35:26.827Z,97423.50
2023-04-15T07:37:53.687Z,97425.06
2023-04-15T07:40:20.620Z,97408.53
2023-04-15T07:42:49.619Z,97423.03
2023-04-15T07:45:17.181Z,97414.19
2023-04-15T07:47:44.101Z,97407.00
2023-04-15T07:50:11.665Z,97411.34
2023-04-15T07:52:41.645Z,97407.47
2023-04-15T07:55:09.364Z,97412.94
2023-04-15T07:57:37.085Z,97407.25
2023-04-15T08:00:06.009Z,97397.69
2023-04-15T08:02:33.029Z,97409.91
2023-04-15T08:05:00.261Z,97420.13
2023-04-15T08:07:27.618Z,97410.41
2023-04-15T08:09:54.596Z,97408.53
2023-04-15T08:12:21.908Z,97411.28
2023-04-15T08:14:51.396Z,97415.97
2023-04-15T08:17:18.351Z,97412.28
2023-04-15T08:19:45.219Z,97406.34
2023-04-15T08:22:17.712Z,97417.38
2023-04-15T08:24:45.938Z,97410.91
2023-04-15T08:27:12.939Z,97416.56
2023-04-15T08:29:40.901Z,97410.25
2023-04-15T08:32:08.020Z,97411.09
2023-04-15T08:34:35.216Z,97398.56
2023-04-15T08:37:02.102Z,97416.25
2023-04-15T08:39:29.028Z,97418.72
2023-04-15T08:42:03.899Z,97403.72
2023-04-15T08:44:34.129Z,97413.97
2023-04-15T08:47:03.126Z,97412.22
2023-04-15T08:49:30.883Z,97410.16
2023-04-15T08:52:01.769Z,97409.31
2023-04-15T08:54:29.238Z,97407.59
2023-04-15T08:56:58.757Z,97403.28
2023-04-15T08:59:26.042Z,97407.94
2023-04-15T09:01:53.793Z,97418.06
2023-04-15T09:04:21.221Z,97417.16
2023-04-15T09:06:48.149Z,97422.22
2023-04-15T09:09:15.096Z,97412.41
2023-04-15T09:11:42.885Z,97418.91
2023-04-15T09:14:09.835Z,97422.16
2023-04-15T09:17:03.760Z,97419.97
2023-04-15T09:19:33.682Z,97417.09
2023-04-15T09:22:00.744Z,97418.22
2023-04-15T09:24:38.886Z,97420.03
2023-04-15T09:27:06.667Z,97418.84
2023-04-15T09:29:33.928Z,97404.50
2023-04-15T09:32:11.579Z,97398.38
2023-04-15T09:34:38.716Z,97416.13
2023-04-15T09:37:07.586Z,97423.16
2023-04-15T09:40:00.915Z,97410.97
2023-04-15T09:42:28.247Z,97397.13
2023-04-15T09:44:55.361Z,97395.44
2023-04-15T09:47:29.696Z,97411.81
2023-04-15T09:49:58.136Z,97415.91
2023-04-15T09:52:25.229Z,97416.34
2023-04-15T09:54:57.479Z,97420.13
2023-04-15T09:57:24.692Z,97410.38
2023-04-15T09:59:52.306Z,97409.41
2023-04-15T10:02:23.401Z,97407.50
2023-04-15T10:04:52.063Z,97417.31
2023-04-15T10:07:22.886Z,97425.13
2023-04-15T10:09:50.193Z,97423.63
2023-04-15T10:12:21.090Z,97422.16
2023-04-15T10:14:59.061Z,97416.81
2023-04-15T10:17:31.244Z,97424.38
2023-04-15T10:20:01.940Z,97419.25
2023-04-15T10:22:29.836Z,97411.13
2023-04-15T10:24:57.610Z,97420.75
2023-04-15T10:27:24.964Z,97421.03
2023-04-15T10:29:52.063Z,97405.84
2023-04-15T10:32:21.974Z,97427.63
2023-04-15T10:34:52.458Z,97418.59
2023-04-15T10:37:35.215Z,97419.63
2023-04-15T10:40:03.177Z,97424.03
2023-04-15T10:42:35.686Z,97422.66
2023-04-15T10:45:02.711Z,97420.00
2023-04-15T10:47:29.645Z,97424.03
2023-04-15T10:50:01.381Z,97417.84
2023-04-15T10:52:29.595Z,97425.75
2023-04-15T10:55:04.754Z,97423.13
2023-04-15T10:57:42.541Z,97422.94
2023-04-15T11:00:09.549Z,97423.34
2023-04-15T11:02:45.196Z,97423.22
2023-04-15T11:05:14.336Z,97423.69
2023-04-15T11:07:49.286Z,97410.38
2023-04-15T11:10:22.051Z,97427.22
2023-04-15T11:12:53.198Z,97427.88
2023-04-15T11:15:39.253Z,97421.66
2023-04-15T11:18:26.542Z,97429.53
2023-04-15T11:20:57.552Z,97416.38
2023-04-15T11:23:32.910Z,97427.53
2023-04-15T11:26:01.713Z,97423.22
2023-04-15T11:28:30.760Z,97429.91
2023-04-15T11:30:58.952Z,97423.69
2023-04-15T11:33:26.238Z,97423.88
2023-04-15T11:35:55.202Z,97427.03
2023-04-15T11:38:22.660Z,97426.31
2023-04-15T11:40:51.911Z,97429.34
2023-04-15T11:43:21.363Z,97431.22
2023-04-15T11:45:54.515Z,97432.06
2023-04-15T11:48:25.092Z,97434.19
2023-04-15T11:51:02.955Z,97438.25
2023-04-15T11:53:49.355Z,97439.44
2023-04-15T11:56:21.415Z,97434.78
2023-04-15T11:58:51.005Z,97439.44
2023-04-15T12:01:18.109Z,97444.13
2023-04-15T12:03:52.409Z,97437.59
2023-04-15T12:06:21.636Z,97442.66
2023-04-15T12:09:06.989Z,97440.69
2023-04-15T12:11:39.879Z,97437.78
2023-04-15T12:14:13.520Z,97435.19
2023-04-15T12:16:48.271Z,97401.19
2023-04-15T12:19:25.571Z,97419.63
2023-04-15T12:22:03.614Z,97438.16
2023-04-15T12:24:36.146Z,97438.09
2023-04-15T12:27:07.042Z,97441.16
2023-04-15T12:29:35.785Z,97437.19
2023-04-15T12:32:08.599Z,97436.88
2023-04-15T12:34:39.675Z,97434.72
2023-04-15T12:37:11.752Z,97440.94
2023-04-15T12:39:41.389Z,97436.16
2023-04-15T12:42:09.742Z,97439.06
2023-04-15T12:44:38.085Z,97436.75
2023-04-15T12:47:05.701Z,97442.09
2023-04-15T12:49:33.806Z,97435.34
2023-04-15T12:52:02.775Z,97436.78
2023-04-15T12:54:31.228Z,97438.38
2023-04-15T12:56:59.380Z,97448.72
2023-04-15T12:59:26.456Z,97436.06
2023-04-15T13:01:54.133Z,97436.41
2023-04-15T13:04:22.497Z,97433.19
2023-04-15T13:06:49.869Z,97441.63
2023-04-15T13:09:17.009Z,97434.19
2023-04-15T13:11:44.415Z,97438.94
2023-04-15T13:14:14.113Z,97433.25
2023-04-15T13:16:41.700Z,97438.28
2023-04-15T13:19:08.919Z,97422.47
2023-04-15T13:21:36.554Z,97440.81
2023-04-15T13:24:04.420Z,97441.25
2023-04-15T13:26:32.161Z,97437.72
2023-04-15T13:28:59.384Z,97440.97
2023-04-15T13:31:26.466Z,97437.50
2023-04-15T13:33:53.604Z,97437.31
2023-04-15T13:36:20.794Z,97445.84
2023-04-15T13:38:50.468Z,97395.00
2023-04-15T13:41:18.224Z,97451.22
2023-04-15T13:43:45.170Z,97454.50
2023-04-15T13:46:12.233Z,97455.09
2023-04-15T13:48:39.259Z,97447.16
2023-04-15T13:51:06.321Z,97449.38
2023-04-15T13:53:38.280Z,97462.78
2023-04-15T13:56:10.522Z,97465.91
2023-04-15T13:58:38.430Z,97461.84
2023-04-15T14:01:07.317Z,97467.13
2023-04-15T14:03:37.388Z,97471.41
2023-04-15T14:06:06.299Z,97462.78
2023-04-15T14:08:33.768Z,97470.22
2023-04-15T14:11:00.838Z,97464.28
2023-04-15T14:13:27.730Z,97466.34
2023-04-15T14:15:55.343Z,97458.94
2023-04-15T14:18:22.332Z,97464.53
2023-04-15T14:20:49.310Z,97465.03
2023-04-15T14:23:16.389Z,97460.59
2023-04-15T14:25:44.124Z,97463.28
2023-04-15T14:28:11.971Z,97474.25
2023-04-15T14:30:38.949Z,97478.84
2023-04-15T14:33:05.958Z,97482.41
2023-04-15T14:35:33.117Z,97489.63
2023-04-15T14:38:00.062Z,97484.69
2023-04-15T14:40:27.019Z,97488.00
2023-04-15T14:42:53.912Z,97491.28
2023-04-15T14:45:21.046Z,97486.94
2023-04-15T14:47:48.232Z,97488.91
2023-04-15T14:50:15.137Z,97476.28
2023-04-15T14:52:42.076Z,97475.41
2023-04-15T14:55:11.371Z,97486.59
2023-04-15T14:57:39.334Z,97492.81
2023-04-15T15:00:07.707Z,97481.59
2023-04-15T15:02:39.606Z,97489.31
2023-04-15T15:05:08.557Z,97484.94
2023-04-15T15:07:37.488Z,97494.22
2023-04-15T15:10:04.855Z,97495.75
2023-04-15T15:12:32.704Z,97498.75
2023-04-15T15:15:00.514Z,97501.47
2023-04-15T15:17:28.646Z,97497.66
2023-04-15T15:19:57.114Z,97501.06
2023-04-15T15:22:24.169Z,97506.69
2023-04-15T15:24:51.079Z,97501.69
2023-04-15T15:27:18.046Z,97512.88
2023-04-15T15:29:45.000Z,97517.88
2023-04-15T15:32:12.009Z,97508.44
2023-04-15T15:34:38.945Z,97511.41
2023-04-15T15:37:06.548Z,97511.25
2023-04-15T15:39:34.363Z,97509.44
2023-04-15T15:42:03.336Z,97517.88
2023-04-15T15:44:30.253Z,97519.06
2023-04-15T15:46:57.268Z,97518.66
2023-04-15T15:49:26.088Z,97517.78
2023-04-15T15:51:52.949Z,97520.56
2023-04-15T15:54:19.892Z,97515.25
2023-04-15T15:56:46.804Z,97526.34
2023-04-15T15:59:13.713Z,97520.19
2023-04-15T16:01:52.539Z,97529.53
2023-04-15T16:04:19.771Z,97527.00
2023-04-15T16:06:47.082Z,97526.50
2023-04-15T16:09:14.152Z,97515.63
2023-04-15T16:11:41.836Z,97518.25
2023-04-15T16:14:08.750Z,97522.47
2023-04-15T16:16:35.813Z,97526.66
2023-04-15T16:19:03.077Z,97527.22
2023-04-15T16:21:31.414Z,97514.66
2023-04-15T16:23:58.428Z,97514.72
2023-04-15T16:26:25.360Z,97527.13
2023-04-15T16:28:52.273Z,97523.53
2023-04-15T16:31:19.177Z,97530.75
2023-04-15T16:33:46.169Z,97527.94
2023-04-15T16:36:13.029Z,97532.69
2023-04-15T16:38:39.940Z,97539.53
2023-04-15T16:41:06.932Z,97544.22
2023-04-15T16:43:33.890Z,97549.16
2023-04-15T16:46:00.785Z,97561.66
2023-04-15T16:48:27.791Z,97569.97
2023-04-15T16:50:54.741Z,97583.88
2023-04-15T16:53:21.648Z,97599.03
2023-04-15T16:55:48.583Z,97607.72
2023-04-15T16:58:15.657Z,97620.38
2023-04-15T17:00:42.671Z,97630.66
2023-04-15T17:03:09.727Z,97639.34
2023-04-15T17:05:36.790Z,97651.59
2023-04-15T17:08:05.235Z,97657.53
2023-04-15T17:10:32.201Z,97659.25
2023-04-15T17:12:59.904Z,97662.19
2023-04-15T17:15:27.664Z,97663.47
2023-04-15T17:17:54.825Z,97669.41
2023-04-15T17:20:21.817Z,97672.75
2023-04-15T17:22:49.612Z,97678.25
2023-04-15T17:25:17.797Z,97681.66
2023-04-15T17:27:45.941Z,97677.56
2023-04-15T17:30:12.916Z,97680.06
2023-04-15T17:32:41.800Z,97686.50
2023-04-15T17:35:11.455Z,97697.94
2023-04-15T17:37:40.861Z,97698.19
2023-04-15T17:40:10.504Z,97706.28
2023-04-15T17:42:38.389Z,97708.53
2023-04-15T17:45:06.024Z,97704.19
2023-04-15T17:47:32.986Z,97702.53
2023-04-15T17:50:02.116Z,97706.69
2023-04-15T17:52:31.374Z,97702.09
2023-04-15T17:55:00.660Z,97700.88
2023-04-15T17:57:29.212Z,97706.28
2023-04-15T17:59:57.129Z,97711.69
2023-04-15T18:02:25.274Z,97716.66
2023-04-15T18:04:54.480Z,97733.47
2023-04-15T18:07:23.166Z,97736.78
2023-04-15T18:09:51.677Z,97740.75
2023-04-15T18:12:20.646Z,97702.88
2023-04-15T18:14:49.958Z,97750.31
2023-04-15T18:17:19.097Z,97767.34
2023-04-15T18:19:46.869Z,97766.63
2023-04-15T18:22:15.795Z,97770.41
2023-04-15T18:24:44.581Z,97772.50
2023-04-15T18:27:12.460Z,97779.56
2023-04-15T18:29:41.707Z,97763.59
2023-04-15T18:32:11.646Z,97781.44
2023-04-15T18:34:39.359Z,97771.28
2023-04-15T18:37:08.173Z,97788.28
2023-04-15T18:39:35.585Z,97782.88
2023-04-15T18:42:04.775Z,97789.72
2023-04-15T18:44:33.155Z,97788.28
2023-04-15T18:47:03.329Z,97779.16
2023-04-15T18:49:34.437Z,97790.34
2023-04-15T18:52:03.568Z,97779.16
2023-04-15T18:54:32.048Z,97784.34
2023-04-15T18:57:00.635Z,97781.63
2023-04-15T18:59:30.173Z,97776.88
2023-04-15T19:02:03.777Z,97778.34
2023-04-15T19:04:31.351Z,97790.78
2023-04-15T19:07:00.656Z,97800.72
2023-04-15T19:09:31.137Z,97790.56
2023-04-15T19:11:59.648Z,97800.31
2023-04-15T19:14:27.704Z,97804.44
2023-04-15T19:16:55.666Z,97811.09
2023-04-15T19:19:22.682Z,97805.69
2023-04-15T19:21:50.479Z,97812.50
2023-04-15T19:24:18.369Z,97813.56
2023-04-15T19:26:48.629Z,97818.53
2023-04-15T19:29:15.618Z,97821.88
2023-04-15T19:31:42.488Z,97828.06
2023-04-15T19:34:09.475Z,97826.81
2023-04-15T19:37:25.898Z,97821.44
2023-04-15T19:39:54.956Z,97820.19
2023-04-15T19:42:21.885Z,97824.13
2023-04-15T19:44:48.872Z,97823.31
2023-04-15T19:47:16.155Z,97823.72
2023-04-15T19:49:43.112Z,97825.38
2023-04-15T19:52:10.033Z,97831.19
2023-04-15T19:54:37.205Z,97831.38
2023-04-15T19:57:04.205Z,97834.47
2023-04-15T19:59:31.212Z,97837.59
2023-04-15T20:01:58.220Z,97831.78
2023-04-15T20:04:25.329Z,97835.75
2023-04-15T20:06:52.260Z,97840.91
2023-04-15T20:09:19.138Z,97836.34
2023-04-15T20:12:46.905Z,97828.88
2023-04-15T20:14:35.878Z,97836.31
2023-04-15T20:17:02.801Z,97832.97
2023-04-15T20:19:29.674Z,97845.63
2023-04-15T20:21:56.618Z,97846.22
2023-04-15T20:24:24.530Z,97849.94
2023-04-15T20:26:51.460Z,97850.31
2023-04-15T20:29:18.360Z,97858.53
2023-04-15T20:31:45.421Z,97858.22
2023-04-15T20:34:12.368Z,97862.53
2023-04-15T20:36:39.353Z,97853.81
2023-04-15T20:39:06.394Z,97851.72
2023-04-15T20:41:33.494Z,97857.50
2023-04-15T20:44:00.609Z,97856.25
2023-04-15T20:46:27.945Z,97856.25
2023-04-15T20:48:55.829Z,97835.88
2023-04-15T20:51:22.810Z,97863.31
2023-04-15T20:53:50.057Z,97867.03
2023-04-15T20:56:16.984Z,97870.13
2023-04-15T20:58:43.876Z,97873.59
2023-04-15T21:01:10.788Z,97876.03
2023-04-15T21:03:37.844Z,97881.56
2023-04-15T21:06:04.932Z,97880.72
2023-04-15T21:08:31.908Z,97889.72
2023-04-15T21:10:58.963Z,97882.84
2023-04-15T21:13:25.916Z,97891.91
2023-04-15T21:15:54.491Z,97885.22
2023-04-15T21:18:21.986Z,97898.09
2023-04-15T21:21:02.812Z,97892.91
2023-04-15T21:23:30.502Z,97886.06
2023-04-15T21:25:57.789Z,97889.69
2023-04-15T21:28:24.871Z,97889.69
2023-04-15T21:30:51.764Z,97898.81
2023-04-15T21:33:20.521Z,97919.25
2023-04-15T21:35:47.472Z,97910.81
2023-04-15T21:38:14.864Z,97922.22
2023-04-15T21:40:41.838Z,97925.56
2023-04-15T21:43:08.756Z,97934.66
2023-04-15T21:45:36.208Z,97934.31
2023-04-15T21:48:08.002Z,97930.97
2023-04-15T21:50:38.590Z,97939.09
2023-04-15T21:53:08.377Z,97928.16
2023-04-15T21:55:36.301Z,97939.59
2023-04-15T21:58:03.183Z,97888.47
2023-04-15T22:00:30.124Z,97942.50
2023-04-15T22:02:57.238Z,97947.22
2023-04-15T22:05:25.295Z,97952.13
2023-04-15T22:07:52.297Z,97968.53
2023-04-15T22:10:20.990Z,97962.72
2023-04-15T22:12:47.916Z,97967.34
2023-04-15T22:15:17.238Z,97974.13
2023-04-15T22:17:44.150Z,97967.69
2023-04-15T22:20:11.222Z,97975.94
2023-04-15T22:22:43.787Z,97957.16
2023-04-15T22:25:12.189Z,97964.22
2023-04-15T22:27:39.122Z,97971.25
2023-04-15T22:30:06.779Z,97974.13
2023-04-15T22:32:33.741Z,97976.53
2023-04-15T22:35:01.641Z,97975.63
2023-04-15T22:37:31.308Z,97975.19
2023-04-15T22:39:58.250Z,97977.03
2023-04-15T22:42:25.527Z,97983.03
2023-04-15T22:44:52.510Z,97996.66
2023-04-15T22:47:20.016Z,98000.53
2023-04-15T22:49:46.894Z,98001.09
2023-04-15T22:52:23.459Z,98011.38
2023-04-15T22:54:56.791Z,97987.63
2023-04-15T22:57:23.844Z,98013.72
2023-04-15T22:59:51.128Z,98007.31
2023-04-15T23:02:18.160Z,97992.88
2023-04-15T23:04:45.649Z,98010.84
2023-04-15T23:07:12.651Z,98016.47
2023-04-15T23:09:40.106Z,98018.16
2023-04-15T23:12:07.464Z,98017.31
2023-04-15T23:14:34.388Z,98015.09
2023-04-15T23:17:01.277Z,98029.69
2023-04-15T23:19:28.193Z,98014.97
2023-04-15T23:21:55.145Z,98033.66
2023-04-15T23:24:22.104Z,98027.47
2023-04-15T23:26:49.010Z,98021.72
2023-04-15T23:29:15.930Z,98031.63
2023-04-15T23:31:42.861Z,98024.41
2023-04-15T23:34:09.912Z,98030.63
2023-04-15T23:36:37.096Z,98031.63
2023-04-15T23:39:06.487Z,98033.84
2023-04-15T23:41:33.408Z,98027.56
2023-04-15T23:44:00.297Z,98037.09
2023-04-15T23:46:27.459Z,98034.78
2023-04-15T23:48:54.511Z,98037.81
2023-04-15T23:51:21.373Z,98045.94
2023-04-15T23:53:49.583Z,98040.09
2023-04-15T23:56:16.480Z,98026.78
2023-04-15T23:58:43.367Z,98044.88
